Iona Mcallister — WDD4840 — position and weather

sailwx.info

Track history (hours):
 
Tides and Currents Weather Stations Pressure Air Temp Water Temp Dewpoint Dewpoint Depression Visibility Wind Speed Wind Dir Waves Ship Positions

Iona Mcallister

Owner: McAllister Towing & Transportation Co. Inc., Staten Island, NY. More information available from US FCC via Universal Licensing System and Coast Guard Vessel Documentation Center.

Last reported at 2014-Nov-27 08:17 UTC. Time now 2014-Nov-27 09:34 UTC.
Position N 41°48' W 071°23'.

Length 36 m.

Type: Towing. MMSI: 367149890.

Date/timePositionNaut miles runAvg speedWind from/ knotsBaromVisibWave heightAir tempDewpointWater temp
2014-Nov-27 08:17N 41°48' W 071°23'0 0.0
2014-Nov-27 07:33N 41°48' W 071°23'0 0.0
2014-Nov-27 06:32N 41°48' W 071°23'0 0.5
2014-Nov-27 05:32N 41°48' W 071°24'0 0.1
2014-Nov-27 04:33N 41°48' W 071°24'2 1.6
2014-Nov-27 03:33N 41°47' W 071°22'1 1.1
2014-Nov-27 02:33N 41°48' W 071°23'0 0.0
2014-Nov-27 01:32N 41°48' W 071°23'1 0.6
2014-Nov-27 00:33N 41°47' W 071°23'2 1.7
2014-Nov-26 23:33N 41°49' W 071°24'0 0.1
2014-Nov-26 22:33N 41°49' W 071°24'0 0.0
2014-Nov-26 21:33N 41°49' W 071°24'0 0.0
2014-Nov-26 20:33N 41°49' W 071°24'0 0.0
2014-Nov-26 19:33N 41°49' W 071°24'0 0.0
2014-Nov-26 18:33N 41°49' W 071°24'0 0.0
2014-Nov-26 17:33N 41°49' W 071°24'0 0.0
2014-Nov-26 16:33N 41°49' W 071°24'0 0.0
2014-Nov-26 15:33N 41°49' W 071°24'1 0.8
2014-Nov-26 14:33N 41°48' W 071°24'1 0.9
2014-Nov-26 13:33N 41°48' W 071°23'0 0.5
2014-Nov-26 12:33N 41°47' W 071°22'2 2.1
2014-Nov-26 11:33N 41°49' W 071°24'0 0.0
2014-Nov-26 10:33N 41°49' W 071°24'0 0.0
2014-Nov-26 09:33N 41°49' W 071°24'0 0.0
2014-Nov-26 08:33N 41°49' W 071°24'0 0.0
2014-Nov-26 07:33N 41°49' W 071°24'0 0.0
2014-Nov-26 06:33N 41°49' W 071°24'0 0.0
2014-Nov-26 05:33N 41°49' W 071°24'0 0.0
2014-Nov-26 04:33N 41°49' W 071°24'0 0.0
2014-Nov-26 03:33N 41°49' W 071°24'0 0.0
2014-Nov-26 02:33N 41°49' W 071°24'0 0.0
2014-Nov-26 01:33N 41°49' W 071°24'1 1.1
2014-Nov-26 00:32N 41°48' W 071°23'7 7.5
2014-Nov-25 23:33N 41°41' W 071°21'5 4.7
2014-Nov-25 22:33N 41°37' W 071°24'0 0.0
2014-Nov-25 21:33N 41°37' W 071°24'3 3.3
2014-Nov-25 20:33N 41°35' W 071°21'9 8.0
2014-Nov-25 19:26N 41°41' W 071°12'1 1.6
2014-Nov-25 18:33N 41°42' W 071°11'0 0.0
2014-Nov-25 17:33N 41°42' W 071°11'0 0.0
2014-Nov-25 16:33N 41°42' W 071°11'0 0.0
2014-Nov-25 15:32N 41°42' W 071°11'0 0.5
2014-Nov-25 14:32N 41°42' W 071°11'1 0.5
2014-Nov-25 13:33N 41°42' W 071°11'1010.3
2014-Nov-25 12:33N 41°35' W 071°21'3 3.0
2014-Nov-25 11:33N 41°37' W 071°24'1 0.5
2014-Nov-25 10:26N 41°36' W 071°24'2 2.1
2014-Nov-25 09:33N 41°38' W 071°22'6 6.2
2014-Nov-25 08:33N 41°44' W 071°22'5 5.0
2014-Nov-25 07:33N 41°49' W 071°24'0 0.0
2014-Nov-25 06:33N 41°49' W 071°24'0 0.0
2014-Nov-25 05:33N 41°49' W 071°24'0 0.0
2014-Nov-25 04:33N 41°49' W 071°24'0 0.0
2014-Nov-25 03:33N 41°49' W 071°24'0 0.0
2014-Nov-25 02:33N 41°49' W 071°24'0 0.0
2014-Nov-25 01:33N 41°49' W 071°24'0 0.0
2014-Nov-25 00:33N 41°49' W 071°24'0 0.0
2014-Nov-24 23:33N 41°49' W 071°24'0 0.0
2014-Nov-24 22:33N 41°49' W 071°24'0 0.0
2014-Nov-24 21:33N 41°49' W 071°24'5 4.7
2014-Nov-24 20:33N 41°44' W 071°22'6 5.9
2014-Nov-24 19:33N 41°39' W 071°22'4 3.7
2014-Nov-24 18:33N 41°35' W 071°24'2 1.4
2014-Nov-24 17:25N 41°37' W 071°24'0 0.0
2014-Nov-24 16:28N 41°37' W 071°24'0 0.0
2014-Nov-24 15:33N 41°37' W 071°24'0 0.0
2014-Nov-24 14:33N 41°37' W 071°24'0 0.0
2014-Nov-24 13:33N 41°37' W 071°24'0 0.0
2014-Nov-24 12:32N 41°37' W 071°24'0 0.0
2014-Nov-24 11:33N 41°37' W 071°24'1 0.5
2014-Nov-24 10:33N 41°36' W 071°24'1 1.4
2014-Nov-24 09:33N 41°35' W 071°24'0 0.0
2014-Nov-24 08:33N 41°35' W 071°24'0 0.0
2014-Nov-24 07:33N 41°35' W 071°24'3 3.0
2014-Nov-24 06:33N 41°38' W 071°22'7 6.5
2014-Nov-24 05:33N 41°44' W 071°22'4 4.1
2014-Nov-24 04:27N 41°49' W 071°24'0 0.5
2014-Nov-24 03:33N 41°49' W 071°24'0 0.0
2014-Nov-24 02:33N 41°49' W 071°24'0 0.0
2014-Nov-24 01:33N 41°49' W 071°24'2 2.1
2014-Nov-24 00:33N 41°47' W 071°23'8 8.3
2014-Nov-23 23:33N 41°39' W 071°22'4 3.9
2014-Nov-23 22:33N 41°35' W 071°24'1 0.9
2014-Nov-23 21:33N 41°36' W 071°24'1 1.1
2014-Nov-23 20:33N 41°37' W 071°24'0 0.0
2014-Nov-23 19:33N 41°37' W 071°24'0 0.0
2014-Nov-23 18:33N 41°37' W 071°24'0 0.0
2014-Nov-23 17:33N 41°37' W 071°24'0 0.0
2014-Nov-23 16:32N 41°37' W 071°24'0 0.0
2014-Nov-23 15:33N 41°37' W 071°24'0 0.0
2014-Nov-23 14:33N 41°37' W 071°24'0 0.0
2014-Nov-23 13:33N 41°37' W 071°24'0 0.0
2014-Nov-23 12:33N 41°37' W 071°24'0 0.0
2014-Nov-23 11:30N 41°37' W 071°24'1 0.6
2014-Nov-23 10:32N 41°36' W 071°24'1 1.4
2014-Nov-23 09:33N 41°35' W 071°24'0 0.0
2014-Nov-23 08:33N 41°35' W 071°24'0 0.0
2014-Nov-23 07:33N 41°35' W 071°24'0 0.0
2014-Nov-23 06:33N 41°35' W 071°24'0 0.0
2014-Nov-23 05:33N 41°35' W 071°24'0 0.0
2014-Nov-23 04:33N 41°35' W 071°24'0 0.0
2014-Nov-23 03:33N 41°35' W 071°24'0 0.0
2014-Nov-23 02:33N 41°35' W 071°24'0 0.1
2014-Nov-23 01:32N 41°35' W 071°25'2 1.6
2014-Nov-23 00:33N 41°35' W 071°23'5 4.5
2014-Nov-22 23:33N 41°30' W 071°21'5 4.7
2014-Nov-22 22:33N 41°26' W 071°21'4 3.5
2014-Nov-22 21:33N 41°26' W 071°16'3 3.3
2014-Nov-22 20:31N 41°25' W 071°12'64 3.5
2014-Nov-22 02:33N 42°26' W 070°47'4 3.4
2014-Nov-22 01:31N 42°29' W 070°44'5 4.1
2014-Nov-22 00:17N 42°32' W 070°39'9 3.2
2014-Nov-21 21:23N 42°41' W 070°33'4 4.7
2014-Nov-21 20:33N 42°44' W 070°36'5 5.1
2014-Nov-21 19:33N 42°47' W 070°41'7 5.1
2014-Nov-21 18:16N 42°54' W 070°43'10 5.6
2014-Nov-21 16:34N 43°03' W 070°42'2 0.5
2014-Nov-21 11:25N 43°05' W 070°44'10 5.3
2014-Nov-21 09:32N 42°56' W 070°39'8 7.9
2014-Nov-21 08:33N 42°48' W 070°35'17 7.1
2014-Nov-21 06:12N 42°32' W 070°40'  
2014-Nov-17 17:19N 41°27' W 071°02'7 9.3
2014-Nov-17 16:33N 41°26' W 071°12'8 7.9
2014-Nov-17 15:33N 41°28' W 071°22'10 9.7
2014-Nov-17 14:33N 41°37' W 071°18'9 9.3
2014-Nov-17 13:33N 41°45' W 071°23'4 3.6
2014-Nov-17 12:33N 41°49' W 071°24'0 0.0
2014-Nov-17 11:33N 41°49' W 071°24'0 0.0
2014-Nov-17 10:33N 41°49' W 071°24'0 0.0
2014-Nov-17 09:33N 41°49' W 071°24'0 0.0
2014-Nov-17 08:33N 41°49' W 071°24'  
Track history (hours):
 
Tides and Currents Weather Stations Pressure Air Temp Water Temp Dewpoint Dewpoint Depression Visibility Wind Speed Wind Dir Waves Ship Positions

Iona Mcallister

Owner: McAllister Towing & Transportation Co. Inc., Staten Island, NY. More information available from US FCC via Universal Licensing System and Coast Guard Vessel Documentation Center.

Last reported at 2014-Nov-27 08:17 UTC. Time now 2014-Nov-27 09:34 UTC.
Position N 41°48' W 071°23'.

Length 36 m.

Type: Towing. MMSI: 367149890.

Date/timePositionNaut miles runAvg speedWind from/ knotsBaromVisibWave heightAir tempDewpointWater temp
2014-Nov-27 08:17N 41°48' W 071°23'0 0.0
2014-Nov-27 07:33N 41°48' W 071°23'0 0.0
2014-Nov-27 06:32N 41°48' W 071°23'0 0.5
2014-Nov-27 05:32N 41°48' W 071°24'0 0.1
2014-Nov-27 04:33N 41°48' W 071°24'2 1.6
2014-Nov-27 03:33N 41°47' W 071°22'1 1.1
2014-Nov-27 02:33N 41°48' W 071°23'0 0.0
2014-Nov-27 01:32N 41°48' W 071°23'1 0.6
2014-Nov-27 00:33N 41°47' W 071°23'2 1.7
2014-Nov-26 23:33N 41°49' W 071°24'0 0.1
2014-Nov-26 22:33N 41°49' W 071°24'0 0.0
2014-Nov-26 21:33N 41°49' W 071°24'0 0.0
2014-Nov-26 20:33N 41°49' W 071°24'0 0.0
2014-Nov-26 19:33N 41°49' W 071°24'0 0.0
2014-Nov-26 18:33N 41°49' W 071°24'0 0.0
2014-Nov-26 17:33N 41°49' W 071°24'0 0.0
2014-Nov-26 16:33N 41°49' W 071°24'0 0.0
2014-Nov-26 15:33N 41°49' W 071°24'1 0.8
2014-Nov-26 14:33N 41°48' W 071°24'1 0.9
2014-Nov-26 13:33N 41°48' W 071°23'0 0.5
2014-Nov-26 12:33N 41°47' W 071°22'2 2.1
2014-Nov-26 11:33N 41°49' W 071°24'0 0.0
2014-Nov-26 10:33N 41°49' W 071°24'0 0.0
2014-Nov-26 09:33N 41°49' W 071°24'0 0.0
2014-Nov-26 08:33N 41°49' W 071°24'0 0.0
2014-Nov-26 07:33N 41°49' W 071°24'0 0.0
2014-Nov-26 06:33N 41°49' W 071°24'0 0.0
2014-Nov-26 05:33N 41°49' W 071°24'0 0.0
2014-Nov-26 04:33N 41°49' W 071°24'0 0.0
2014-Nov-26 03:33N 41°49' W 071°24'0 0.0
2014-Nov-26 02:33N 41°49' W 071°24'0 0.0
2014-Nov-26 01:33N 41°49' W 071°24'1 1.1
2014-Nov-26 00:32N 41°48' W 071°23'7 7.5
2014-Nov-25 23:33N 41°41' W 071°21'5 4.7
2014-Nov-25 22:33N 41°37' W 071°24'0 0.0
2014-Nov-25 21:33N 41°37' W 071°24'3 3.3
2014-Nov-25 20:33N 41°35' W 071°21'9 8.0
2014-Nov-25 19:26N 41°41' W 071°12'1 1.6
2014-Nov-25 18:33N 41°42' W 071°11'0 0.0
2014-Nov-25 17:33N 41°42' W 071°11'0 0.0
2014-Nov-25 16:33N 41°42' W 071°11'0 0.0
2014-Nov-25 15:32N 41°42' W 071°11'0 0.5
2014-Nov-25 14:32N 41°42' W 071°11'1 0.5
2014-Nov-25 13:33N 41°42' W 071°11'1010.3
2014-Nov-25 12:33N 41°35' W 071°21'3 3.0
2014-Nov-25 11:33N 41°37' W 071°24'1 0.5
2014-Nov-25 10:26N 41°36' W 071°24'2 2.1
2014-Nov-25 09:33N 41°38' W 071°22'6 6.2
2014-Nov-25 08:33N 41°44' W 071°22'5 5.0
2014-Nov-25 07:33N 41°49' W 071°24'0 0.0
2014-Nov-25 06:33N 41°49' W 071°24'0 0.0
2014-Nov-25 05:33N 41°49' W 071°24'0 0.0
2014-Nov-25 04:33N 41°49' W 071°24'0 0.0
2014-Nov-25 03:33N 41°49' W 071°24'0 0.0
2014-Nov-25 02:33N 41°49' W 071°24'0 0.0
2014-Nov-25 01:33N 41°49' W 071°24'0 0.0
2014-Nov-25 00:33N 41°49' W 071°24'0 0.0
2014-Nov-24 23:33N 41°49' W 071°24'0 0.0
2014-Nov-24 22:33N 41°49' W 071°24'0 0.0
2014-Nov-24 21:33N 41°49' W 071°24'5 4.7
2014-Nov-24 20:33N 41°44' W 071°22'6 5.9
2014-Nov-24 19:33N 41°39' W 071°22'4 3.7
2014-Nov-24 18:33N 41°35' W 071°24'2 1.4
2014-Nov-24 17:25N 41°37' W 071°24'0 0.0
2014-Nov-24 16:28N 41°37' W 071°24'0 0.0
2014-Nov-24 15:33N 41°37' W 071°24'0 0.0
2014-Nov-24 14:33N 41°37' W 071°24'0 0.0
2014-Nov-24 13:33N 41°37' W 071°24'0 0.0
2014-Nov-24 12:32N 41°37' W 071°24'0 0.0
2014-Nov-24 11:33N 41°37' W 071°24'1 0.5
2014-Nov-24 10:33N 41°36' W 071°24'1 1.4
2014-Nov-24 09:33N 41°35' W 071°24'0 0.0
2014-Nov-24 08:33N 41°35' W 071°24'0 0.0
2014-Nov-24 07:33N 41°35' W 071°24'3 3.0
2014-Nov-24 06:33N 41°38' W 071°22'7 6.5
2014-Nov-24 05:33N 41°44' W 071°22'4 4.1
2014-Nov-24 04:27N 41°49' W 071°24'0 0.5
2014-Nov-24 03:33N 41°49' W 071°24'0 0.0
2014-Nov-24 02:33N 41°49' W 071°24'0 0.0
2014-Nov-24 01:33N 41°49' W 071°24'2 2.1
2014-Nov-24 00:33N 41°47' W 071°23'8 8.3
2014-Nov-23 23:33N 41°39' W 071°22'4 3.9
2014-Nov-23 22:33N 41°35' W 071°24'1 0.9
2014-Nov-23 21:33N 41°36' W 071°24'1 1.1
2014-Nov-23 20:33N 41°37' W 071°24'0 0.0
2014-Nov-23 19:33N 41°37' W 071°24'0 0.0
2014-Nov-23 18:33N 41°37' W 071°24'0 0.0
2014-Nov-23 17:33N 41°37' W 071°24'0 0.0
2014-Nov-23 16:32N 41°37' W 071°24'0 0.0
2014-Nov-23 15:33N 41°37' W 071°24'0 0.0
2014-Nov-23 14:33N 41°37' W 071°24'0 0.0
2014-Nov-23 13:33N 41°37' W 071°24'0 0.0
2014-Nov-23 12:33N 41°37' W 071°24'0 0.0
2014-Nov-23 11:30N 41°37' W 071°24'1 0.6
2014-Nov-23 10:32N 41°36' W 071°24'1 1.4
2014-Nov-23 09:33N 41°35' W 071°24'0 0.0
2014-Nov-23 08:33N 41°35' W 071°24'0 0.0
2014-Nov-23 07:33N 41°35' W 071°24'0 0.0
2014-Nov-23 06:33N 41°35' W 071°24'0 0.0
2014-Nov-23 05:33N 41°35' W 071°24'0 0.0
2014-Nov-23 04:33N 41°35' W 071°24'0 0.0
2014-Nov-23 03:33N 41°35' W 071°24'0 0.0
2014-Nov-23 02:33N 41°35' W 071°24'0 0.1
2014-Nov-23 01:32N 41°35' W 071°25'2 1.6
2014-Nov-23 00:33N 41°35' W 071°23'5 4.5
2014-Nov-22 23:33N 41°30' W 071°21'5 4.7
2014-Nov-22 22:33N 41°26' W 071°21'4 3.5
2014-Nov-22 21:33N 41°26' W 071°16'3 3.3
2014-Nov-22 20:31N 41°25' W 071°12'64 3.5
2014-Nov-22 02:33N 42°26' W 070°47'4 3.4
2014-Nov-22 01:31N 42°29' W 070°44'5 4.1
2014-Nov-22 00:17N 42°32' W 070°39'9 3.2
2014-Nov-21 21:23N 42°41' W 070°33'4 4.7
2014-Nov-21 20:33N 42°44' W 070°36'5 5.1
2014-Nov-21 19:33N 42°47' W 070°41'7 5.1
2014-Nov-21 18:16N 42°54' W 070°43'10 5.6
2014-Nov-21 16:34N 43°03' W 070°42'2 0.5
2014-Nov-21 11:25N 43°05' W 070°44'10 5.3
2014-Nov-21 09:32N 42°56' W 070°39'8 7.9
2014-Nov-21 08:33N 42°48' W 070°35'17 7.1
2014-Nov-21 06:12N 42°32' W 070°40'  
2014-Nov-17 17:19N 41°27' W 071°02'7 9.3
2014-Nov-17 16:33N 41°26' W 071°12'8 7.9
2014-Nov-17 15:33N 41°28' W 071°22'10 9.7
2014-Nov-17 14:33N 41°37' W 071°18'9 9.3
2014-Nov-17 13:33N 41°45' W 071°23'4 3.6
2014-Nov-17 12:33N 41°49' W 071°24'0 0.0
2014-Nov-17 11:33N 41°49' W 071°24'0 0.0
2014-Nov-17 10:33N 41°49' W 071°24'0 0.0
2014-Nov-17 09:33N 41°49' W 071°24'0 0.0
2014-Nov-17 08:33N 41°49' W 071°24'  

Dump ship's entire track history